createdAt,value
2023-01-29T00:01:54.598Z,21.00
2023-01-29T00:04:21.556Z,21.00
2023-01-29T00:06:48.481Z,21.00
2023-01-29T00:09:15.415Z,20.94
2023-01-29T00:11:42.792Z,20.94
2023-01-29T00:14:09.703Z,20.88
2023-01-29T00:16:36.801Z,20.88
2023-01-29T00:19:03.789Z,20.81
2023-01-29T00:21:30.787Z,20.81
2023-01-29T00:23:57.885Z,20.75
2023-01-29T00:26:33.751Z,20.75
2023-01-29T00:29:00.729Z,20.69
2023-01-29T00:31:28.083Z,20.69
2023-01-29T00:34:03.951Z,20.63
2023-01-29T00:36:30.897Z,20.56
2023-01-29T00:38:57.876Z,20.56
2023-01-29T00:41:24.885Z,20.50
2023-01-29T00:43:51.811Z,20.50
2023-01-29T00:46:18.763Z,20.44
2023-01-29T00:48:49.766Z,20.44
2023-01-29T00:51:16.720Z,20.44
2023-01-29T00:53:46.808Z,20.38
2023-01-29T00:56:13.748Z,20.38
2023-01-29T00:58:40.683Z,20.38
2023-01-29T01:01:07.632Z,20.31
2023-01-29T01:03:34.583Z,20.31
2023-01-29T01:06:01.533Z,20.31
2023-01-29T01:08:28.433Z,20.25
2023-01-29T01:10:55.467Z,20.25
2023-01-29T01:13:22.414Z,20.25
2023-01-29T01:15:49.428Z,20.19
2023-01-29T01:18:16.395Z,20.19
2023-01-29T01:20:43.330Z,20.19
2023-01-29T01:23:10.298Z,20.13
2023-01-29T01:25:37.226Z,20.13
2023-01-29T01:28:04.137Z,20.13
2023-01-29T01:30:31.074Z,20.13
2023-01-29T01:33:00.843Z,20.06
2023-01-29T01:35:27.841Z,20.06
2023-01-29T01:37:54.831Z,20.00
2023-01-29T01:40:23.503Z,20.00
2023-01-29T01:42:50.472Z,20.00
2023-01-29T01:45:17.441Z,19.94
2023-01-29T01:47:44.389Z,19.94
2023-01-29T01:50:21.923Z,19.88
2023-01-29T01:52:48.869Z,19.88
2023-01-29T01:55:15.845Z,19.88
2023-01-29T01:57:43.832Z,19.81
2023-01-29T02:00:10.790Z,19.81
2023-01-29T02:02:37.767Z,19.81
2023-01-29T02:05:04.700Z,19.81
2023-01-29T02:07:31.630Z,19.75
2023-01-29T02:09:58.581Z,19.75
2023-01-29T02:12:25.513Z,19.75
2023-01-29T02:14:52.449Z,19.75
2023-01-29T02:17:19.457Z,19.75
2023-01-29T02:19:46.487Z,19.69
2023-01-29T02:22:13.444Z,19.69
2023-01-29T02:24:40.376Z,19.69
2023-01-29T02:27:07.348Z,19.69
2023-01-29T02:29:34.283Z,19.69
2023-01-29T02:32:01.221Z,19.69
2023-01-29T02:34:28.194Z,19.69
2023-01-29T02:36:55.119Z,19.63
2023-01-29T02:39:22.152Z,19.63
2023-01-29T02:41:49.131Z,19.63
2023-01-29T02:44:19.079Z,19.56
2023-01-29T02:46:46.011Z,19.56
2023-01-29T02:49:12.955Z,19.50
2023-01-29T02:51:39.891Z,19.50
2023-01-29T02:54:07.136Z,19.50
2023-01-29T02:56:34.075Z,19.44
2023-01-29T02:59:01.019Z,19.44
2023-01-29T03:01:28.822Z,19.44
2023-01-29T03:03:58.660Z,19.44
2023-01-29T03:06:25.662Z,19.38
2023-01-29T03:08:52.624Z,19.38
2023-01-29T03:11:20.155Z,19.38
2023-01-29T03:13:47.093Z,19.38
2023-01-29T03:16:14.382Z,19.38
2023-01-29T03:18:41.332Z,19.38
2023-01-29T03:21:08.250Z,19.31
2023-01-29T03:23:35.176Z,19.31
2023-01-29T03:26:02.137Z,19.31
2023-01-29T03:28:30.514Z,19.31
2023-01-29T03:30:57.499Z,19.31
2023-01-29T03:33:25.812Z,19.31
2023-01-29T03:35:52.728Z,19.31
2023-01-29T03:38:19.661Z,19.31
2023-01-29T03:40:46.603Z,19.31
2023-01-29T03:43:13.563Z,19.31
2023-01-29T03:45:40.506Z,19.25
2023-01-29T03:48:07.447Z,19.25
2023-01-29T03:50:34.364Z,19.25
2023-01-29T03:53:01.309Z,19.19
2023-01-29T03:55:28.224Z,19.19
2023-01-29T03:57:55.185Z,19.19
2023-01-29T04:00:22.904Z,19.13
2023-01-29T04:02:49.859Z,19.13
2023-01-29T04:05:16.795Z,19.13
2023-01-29T04:07:43.810Z,19.13
2023-01-29T04:10:10.712Z,19.13
2023-01-29T04:12:37.863Z,19.06
2023-01-29T04:15:04.819Z,19.06
2023-01-29T04:17:31.764Z,19.06
2023-01-29T04:19:58.768Z,19.06
2023-01-29T04:22:25.734Z,19.00
2023-01-29T04:24:52.888Z,19.00
2023-01-29T04:27:19.856Z,19.06
2023-01-29T04:29:46.788Z,19.06
2023-01-29T04:32:13.724Z,19.06
2023-01-29T04:34:40.662Z,19.06
2023-01-29T04:37:07.622Z,19.00
2023-01-29T04:39:34.594Z,18.94
2023-01-29T04:42:01.546Z,18.94
2023-01-29T04:44:28.515Z,18.88
2023-01-29T04:46:55.445Z,18.88
2023-01-29T04:49:23.625Z,18.88
2023-01-29T04:51:50.588Z,18.81
2023-01-29T04:54:20.685Z,18.81
2023-01-29T04:56:48.808Z,18.88
2023-01-29T04:59:15.723Z,22.13
2023-01-29T05:01:42.685Z,28.69
2023-01-29T05:04:09.631Z,31.50
2023-01-29T05:06:36.563Z,32.00
2023-01-29T05:09:03.502Z,31.94
2023-01-29T05:11:30.459Z,27.88
2023-01-29T05:13:57.394Z,25.00
2023-01-29T05:16:24.405Z,26.56
2023-01-29T05:18:51.363Z,30.69
2023-01-29T05:21:18.603Z,32.81
2023-01-29T05:23:45.816Z,33.56
2023-01-29T05:26:12.755Z,30.63
2023-01-29T05:28:39.749Z,27.81
2023-01-29T05:31:06.765Z,30.00
2023-01-29T05:33:33.747Z,32.88
2023-01-29T05:36:00.710Z,34.00
2023-01-29T05:38:27.643Z,34.25
2023-01-29T05:40:54.574Z,31.19
2023-01-29T05:43:21.921Z,29.69
2023-01-29T05:45:48.889Z,32.38
2023-01-29T05:48:17.173Z,34.44
2023-01-29T05:50:44.082Z,34.94
2023-01-29T05:53:11.001Z,34.56
2023-01-29T05:55:39.096Z,32.31
2023-01-29T05:58:06.103Z,30.88
2023-01-29T06:00:33.047Z,32.81
2023-01-29T06:03:00.033Z,34.75
2023-01-29T06:05:26.989Z,35.75
2023-01-29T06:07:53.981Z,35.63
2023-01-29T06:10:20.972Z,34.88
2023-01-29T06:12:47.923Z,34.69
2023-01-29T06:15:14.902Z,35.44
2023-01-29T06:17:41.960Z,36.19
2023-01-29T06:20:08.912Z,36.50
2023-01-29T06:22:35.858Z,36.69
2023-01-29T06:25:02.789Z,36.94
2023-01-29T06:27:29.707Z,37.19
2023-01-29T06:29:56.612Z,37.44
2023-01-29T06:32:23.923Z,37.69
2023-01-29T06:34:50.892Z,37.88
2023-01-29T06:37:19.993Z,38.06
2023-01-29T06:39:46.942Z,38.19
2023-01-29T06:42:13.885Z,38.19
2023-01-29T06:44:40.859Z,38.25
2023-01-29T06:47:07.846Z,38.19
2023-01-29T06:49:34.786Z,38.31
2023-01-29T06:52:01.706Z,38.19
2023-01-29T06:54:28.634Z,38.19
2023-01-29T06:56:55.575Z,38.25
2023-01-29T06:59:27.384Z,38.31
2023-01-29T07:01:54.333Z,38.38
2023-01-29T07:04:22.864Z,38.25
2023-01-29T07:06:49.896Z,38.19
2023-01-29T07:09:16.830Z,38.25
2023-01-29T07:11:43.730Z,38.31
2023-01-29T07:14:13.462Z,38.31
2023-01-29T07:16:40.414Z,38.38
2023-01-29T07:19:07.402Z,38.38
2023-01-29T07:21:34.384Z,38.31
2023-01-29T07:24:01.384Z,38.13
2023-01-29T07:26:28.379Z,37.94
2023-01-29T07:28:55.309Z,37.75
2023-01-29T07:31:22.331Z,37.56
2023-01-29T07:33:49.344Z,37.31
2023-01-29T07:36:16.254Z,37.13
2023-01-29T07:38:43.262Z,37.19
2023-01-29T07:41:13.534Z,37.31
2023-01-29T07:43:40.580Z,37.31
2023-01-29T07:46:07.630Z,37.25
2023-01-29T07:48:34.596Z,37.38
2023-01-29T07:51:01.546Z,37.44
2023-01-29T07:53:28.544Z,37.56
2023-01-29T07:55:55.865Z,37.56
2023-01-29T07:58:22.824Z,37.63
2023-01-29T08:00:49.818Z,37.69
2023-01-29T08:03:27.794Z,37.75
2023-01-29T08:05:54.739Z,37.81
2023-01-29T08:08:21.684Z,37.88
2023-01-29T08:10:49.070Z,37.94
2023-01-29T08:13:16.051Z,38.00
2023-01-29T08:15:43.027Z,38.13
2023-01-29T08:18:10.008Z,38.19
2023-01-29T08:20:43.473Z,38.25
2023-01-29T08:23:10.400Z,38.31
2023-01-29T08:25:37.877Z,38.44
2023-01-29T08:28:04.910Z,38.44
2023-01-29T08:30:32.862Z,38.50
2023-01-29T08:33:02.653Z,38.56
2023-01-29T08:35:29.604Z,38.63
2023-01-29T08:37:56.519Z,38.56
2023-01-29T08:40:23.447Z,38.50
2023-01-29T08:42:50.399Z,38.50
2023-01-29T08:45:21.196Z,38.50
2023-01-29T08:47:48.895Z,38.50
2023-01-29T08:50:16.052Z,38.50
2023-01-29T08:52:43.207Z,38.50
2023-01-29T08:55:10.126Z,38.50
2023-01-29T08:57:37.063Z,38.56
2023-01-29T09:00:03.988Z,38.63
2023-01-29T09:02:30.900Z,38.63
2023-01-29T09:04:57.916Z,38.44
2023-01-29T09:07:24.897Z,38.31
2023-01-29T09:09:51.830Z,38.25
2023-01-29T09:12:18.747Z,38.19
2023-01-29T09:14:45.729Z,38.19
2023-01-29T09:17:12.714Z,38.19
2023-01-29T09:19:40.731Z,38.13
2023-01-29T09:22:11.888Z,38.13
2023-01-29T09:24:40.912Z,38.13
2023-01-29T09:27:07.862Z,38.13
2023-01-29T09:29:35.935Z,38.13
2023-01-29T09:32:03.018Z,38.19
2023-01-29T09:34:29.946Z,38.06
2023-01-29T09:36:59.596Z,37.94
2023-01-29T09:39:26.517Z,37.75
2023-01-29T09:41:53.833Z,37.56
2023-01-29T09:44:20.756Z,37.38
2023-01-29T09:46:47.697Z,37.19
2023-01-29T09:49:21.216Z,37.19
2023-01-29T09:51:48.247Z,37.19
2023-01-29T09:54:15.167Z,37.13
2023-01-29T09:56:42.127Z,37.13
2023-01-29T09:59:21.424Z,37.06
2023-01-29T10:01:48.397Z,37.13
2023-01-29T10:04:15.440Z,37.25
2023-01-29T10:06:42.449Z,37.38
2023-01-29T10:09:10.904Z,37.44
2023-01-29T10:11:38.889Z,37.56
2023-01-29T10:14:05.804Z,37.56
2023-01-29T10:16:32.780Z,37.69
2023-01-29T10:18:59.716Z,37.75
2023-01-29T10:21:26.825Z,37.81
2023-01-29T10:23:53.839Z,37.94
2023-01-29T10:26:20.850Z,38.06
2023-01-29T10:28:47.785Z,38.19
2023-01-29T10:31:15.243Z,38.25
2023-01-29T10:34:14.300Z,38.25
2023-01-29T10:36:32.126Z,38.38
2023-01-29T10:38:59.385Z,38.44
2023-01-29T10:41:26.333Z,38.38
2023-01-29T10:43:53.348Z,38.38
2023-01-29T10:46:20.837Z,38.38
2023-01-29T10:48:56.655Z,38.38
2023-01-29T10:51:24.395Z,38.38
2023-01-29T10:54:00.682Z,38.44
2023-01-29T10:56:27.642Z,38.50
2023-01-29T10:58:54.574Z,38.56
2023-01-29T11:01:21.564Z,38.56
2023-01-29T11:03:57.572Z,38.56
2023-01-29T11:06:24.881Z,38.56
2023-01-29T11:08:55.602Z,38.44
2023-01-29T11:11:22.575Z,38.38
2023-01-29T11:13:49.577Z,38.25
2023-01-29T11:16:16.563Z,38.13
2023-01-29T11:18:43.889Z,38.13
2023-01-29T11:21:16.689Z,38.19
2023-01-29T11:23:43.683Z,38.19
2023-01-29T11:26:10.677Z,38.19
2023-01-29T11:28:37.601Z,38.19
2023-01-29T11:31:04.618Z,38.25
2023-01-29T11:33:31.656Z,38.25
2023-01-29T11:35:58.633Z,38.31
2023-01-29T11:38:25.565Z,38.38
2023-01-29T11:40:52.492Z,38.31
2023-01-29T11:43:21.286Z,38.13
2023-01-29T11:45:48.321Z,38.00
2023-01-29T11:48:15.254Z,37.81
2023-01-29T11:50:42.203Z,37.63
2023-01-29T11:53:16.224Z,37.44
2023-01-29T11:55:50.547Z,37.19
2023-01-29T11:58:18.005Z,37.13
2023-01-29T12:00:45.947Z,37.25
2023-01-29T12:03:12.874Z,37.31
2023-01-29T12:05:43.991Z,37.25
2023-01-29T12:08:12.808Z,37.25
2023-01-29T12:10:39.779Z,37.31
2023-01-29T12:13:06.883Z,37.44
2023-01-29T12:15:33.865Z,37.50
2023-01-29T12:18:01.206Z,37.50
2023-01-29T12:20:28.139Z,37.56
2023-01-29T12:22:55.176Z,37.69
2023-01-29T12:25:22.135Z,37.81
2023-01-29T12:27:49.915Z,37.88
2023-01-29T12:30:17.098Z,37.88
2023-01-29T12:32:44.272Z,37.94
2023-01-29T12:35:11.271Z,38.00
2023-01-29T12:37:41.166Z,38.13
2023-01-29T12:40:08.086Z,38.19
2023-01-29T12:42:35.011Z,38.19
2023-01-29T12:45:02.014Z,38.19
2023-01-29T12:47:28.940Z,38.13
2023-01-29T12:49:55.893Z,38.19
2023-01-29T12:52:22.844Z,38.19
2023-01-29T12:54:49.787Z,38.19
2023-01-29T12:57:16.697Z,38.25
2023-01-29T12:59:43.688Z,38.31
2023-01-29T13:02:10.621Z,38.13
2023-01-29T13:04:39.301Z,38.06
2023-01-29T13:07:06.226Z,37.94
2023-01-29T13:09:33.166Z,37.88
2023-01-29T13:12:00.178Z,37.75
2023-01-29T13:14:27.115Z,37.50
2023-01-29T13:16:54.077Z,37.31
2023-01-29T13:19:21.190Z,37.13
2023-01-29T13:21:48.126Z,36.94
2023-01-29T13:24:15.087Z,36.88
2023-01-29T13:26:42.116Z,36.88
2023-01-29T13:29:08.998Z,36.69
2023-01-29T13:31:36.068Z,36.06
2023-01-29T13:34:03.035Z,36.00
2023-01-29T13:36:30.015Z,36.38
2023-01-29T13:38:56.950Z,36.69
2023-01-29T13:41:23.888Z,36.88
2023-01-29T13:43:50.861Z,37.00
2023-01-29T13:46:17.846Z,37.06
2023-01-29T13:48:44.787Z,37.19
2023-01-29T13:51:11.748Z,37.31
2023-01-29T13:53:38.876Z,37.44
2023-01-29T13:56:05.795Z,37.56
2023-01-29T13:58:32.737Z,37.63
2023-01-29T14:01:00.077Z,37.75
2023-01-29T14:03:28.449Z,37.81
2023-01-29T14:05:59.076Z,37.88
2023-01-29T14:08:26.027Z,37.94
2023-01-29T14:10:55.951Z,38.06
2023-01-29T14:13:22.931Z,38.13
2023-01-29T14:15:49.859Z,38.13
2023-01-29T14:18:16.831Z,38.19
2023-01-29T14:20:46.068Z,38.25
2023-01-29T14:23:13.216Z,38.19
2023-01-29T14:25:40.165Z,38.19
2023-01-29T14:28:07.107Z,38.13
2023-01-29T14:30:34.105Z,38.19
2023-01-29T14:33:01.317Z,38.25
2023-01-29T14:35:28.349Z,38.25
2023-01-29T14:37:56.711Z,38.06
2023-01-29T14:40:23.880Z,38.00
2023-01-29T14:42:50.814Z,37.94
2023-01-29T14:45:18.117Z,38.00
2023-01-29T14:47:45.265Z,37.94
2023-01-29T14:50:12.231Z,37.88
2023-01-29T14:52:39.168Z,37.69
2023-01-29T14:55:06.116Z,37.50
2023-01-29T14:57:33.054Z,37.31
2023-01-29T15:00:00.007Z,37.13
2023-01-29T15:02:27.084Z,36.94
2023-01-29T15:04:54.069Z,36.81
2023-01-29T15:07:20.997Z,36.81
2023-01-29T15:09:47.982Z,36.44
2023-01-29T15:12:15.467Z,36.25
2023-01-29T15:14:42.438Z,36.50
2023-01-29T15:17:09.389Z,36.63
2023-01-29T15:19:36.324Z,36.69
2023-01-29T15:22:03.359Z,36.81
2023-01-29T15:24:33.566Z,36.94
2023-01-29T15:27:01.571Z,37.06
2023-01-29T15:29:28.487Z,37.13
2023-01-29T15:31:55.569Z,37.25
2023-01-29T15:34:23.904Z,37.31
2023-01-29T15:36:54.803Z,37.44
2023-01-29T15:39:21.794Z,37.50
2023-01-29T15:41:48.758Z,37.50
2023-01-29T15:44:15.694Z,37.56
2023-01-29T15:46:42.625Z,37.69
2023-01-29T15:49:09.555Z,37.81
2023-01-29T15:51:36.484Z,37.88
2023-01-29T15:54:03.410Z,37.94
2023-01-29T15:56:30.371Z,37.94
2023-01-29T15:58:57.345Z,38.06
2023-01-29T16:01:28.908Z,38.13
2023-01-29T16:03:56.808Z,38.13
2023-01-29T16:06:28.413Z,38.13
2023-01-29T16:08:55.364Z,38.00
2023-01-29T16:11:28.865Z,37.81
2023-01-29T16:13:55.790Z,37.69
2023-01-29T16:16:22.764Z,37.50
2023-01-29T16:18:59.494Z,37.31
2023-01-29T16:21:27.547Z,37.13
2023-01-29T16:23:55.563Z,37.13
2023-01-29T16:26:27.100Z,37.31
2023-01-29T16:28:54.085Z,37.38
2023-01-29T16:31:21.121Z,37.38
2023-01-29T16:33:48.096Z,37.50
2023-01-29T16:36:15.180Z,37.63
2023-01-29T16:38:42.391Z,37.69
2023-01-29T16:41:09.795Z,37.81
2023-01-29T16:43:42.444Z,37.88
2023-01-29T16:46:09.652Z,38.00
2023-01-29T16:48:36.603Z,38.13
2023-01-29T16:51:03.542Z,38.19
2023-01-29T16:53:30.459Z,38.25
2023-01-29T16:55:57.396Z,38.25
2023-01-29T16:58:24.310Z,38.31
2023-01-29T17:00:51.292Z,38.19
2023-01-29T17:03:18.264Z,38.13
2023-01-29T17:05:49.862Z,38.13
2023-01-29T17:08:19.858Z,38.06
2023-01-29T17:10:46.872Z,38.00
2023-01-29T17:13:13.837Z,37.81
2023-01-29T17:15:40.790Z,37.63
2023-01-29T17:18:07.712Z,37.50
2023-01-29T17:20:34.619Z,37.31
2023-01-29T17:23:01.556Z,37.13
2023-01-29T17:25:28.471Z,37.00
2023-01-29T17:27:55.416Z,37.00
2023-01-29T17:30:22.365Z,36.88
2023-01-29T17:32:49.365Z,36.88
2023-01-29T17:35:16.784Z,36.94
2023-01-29T17:37:44.020Z,36.94
2023-01-29T17:40:10.980Z,37.00
2023-01-29T17:42:37.887Z,37.13
2023-01-29T17:45:04.819Z,37.19
2023-01-29T17:47:31.756Z,37.25
2023-01-29T17:49:58.777Z,37.38
2023-01-29T17:52:25.747Z,37.50
2023-01-29T17:54:52.654Z,37.56
2023-01-29T17:57:19.651Z,37.63
2023-01-29T17:59:46.613Z,37.69
2023-01-29T18:02:29.189Z,37.75
2023-01-29T18:04:57.282Z,37.88
2023-01-29T18:07:24.213Z,37.94
2023-01-29T18:09:51.135Z,38.06
2023-01-29T18:12:18.370Z,38.19
2023-01-29T18:14:45.274Z,38.25
2023-01-29T18:17:13.918Z,38.25
2023-01-29T18:19:44.068Z,38.25
2023-01-29T18:22:11.043Z,38.31
2023-01-29T18:24:38.004Z,38.25
2023-01-29T18:27:04.985Z,38.00
2023-01-29T18:29:31.921Z,37.81
2023-01-29T18:32:01.783Z,37.56
2023-01-29T18:34:28.866Z,37.38
2023-01-29T18:36:55.821Z,37.19
2023-01-29T18:39:22.745Z,37.06
2023-01-29T18:41:49.723Z,36.94
2023-01-29T18:44:16.640Z,36.88
2023-01-29T18:46:43.828Z,36.94
2023-01-29T18:49:10.778Z,37.06
2023-01-29T18:51:37.911Z,37.06
2023-01-29T18:54:04.875Z,37.13
2023-01-29T18:56:35.823Z,37.19
2023-01-29T18:59:04.299Z,37.31
2023-01-29T19:01:32.498Z,37.44
2023-01-29T19:03:59.439Z,37.44
2023-01-29T19:06:26.360Z,37.38
2023-01-29T19:08:53.324Z,37.31
2023-01-29T19:11:20.260Z,37.19
2023-01-29T19:13:47.195Z,37.00
2023-01-29T19:16:14.203Z,36.88
2023-01-29T19:18:41.119Z,37.00
2023-01-29T19:21:08.037Z,37.06
2023-01-29T19:23:35.048Z,37.13
2023-01-29T19:26:02.046Z,37.19
2023-01-29T19:28:28.997Z,37.31
2023-01-29T19:31:06.280Z,37.44
2023-01-29T19:33:34.892Z,37.56
2023-01-29T19:36:06.332Z,37.63
2023-01-29T19:38:33.326Z,37.69
2023-01-29T19:41:00.359Z,37.75
2023-01-29T19:43:30.300Z,37.81
2023-01-29T19:45:57.661Z,37.88
2023-01-29T19:48:24.565Z,38.00
2023-01-29T19:50:51.517Z,38.06
2023-01-29T19:53:18.488Z,38.13
2023-01-29T19:55:45.423Z,38.19
2023-01-29T19:58:17.832Z,38.25
2023-01-29T20:00:44.833Z,38.13
2023-01-29T20:03:12.946Z,37.94
2023-01-29T20:05:39.881Z,37.63
2023-01-29T20:08:06.822Z,37.38
2023-01-29T20:10:33.783Z,37.00
2023-01-29T20:13:00.719Z,36.69
2023-01-29T20:15:27.644Z,36.38
2023-01-29T20:17:54.585Z,36.06
2023-01-29T20:20:21.513Z,35.75
2023-01-29T20:22:49.624Z,35.38
2023-01-29T20:25:16.574Z,35.00
2023-01-29T20:27:43.495Z,34.69
2023-01-29T20:30:10.421Z,34.38
2023-01-29T20:32:37.340Z,34.00
2023-01-29T20:35:04.246Z,33.69
2023-01-29T20:37:31.197Z,33.44
2023-01-29T20:39:58.159Z,33.13
2023-01-29T20:42:25.116Z,32.81
2023-01-29T20:44:52.127Z,32.56
2023-01-29T20:47:19.318Z,32.31
2023-01-29T20:49:46.918Z,32.00
2023-01-29T20:52:16.719Z,31.75
2023-01-29T20:54:43.685Z,31.50
2023-01-29T20:57:10.855Z,31.25
2023-01-29T20:59:37.811Z,31.00
2023-01-29T21:02:07.778Z,30.00
2023-01-29T21:04:35.127Z,28.38
2023-01-29T21:07:02.057Z,27.56
2023-01-29T21:09:29.020Z,27.06
2023-01-29T21:11:56.960Z,26.75
2023-01-29T21:14:23.868Z,26.56
2023-01-29T21:16:50.889Z,26.38
2023-01-29T21:19:17.836Z,26.25
2023-01-29T21:21:44.752Z,26.13
2023-01-29T21:24:11.687Z,26.00
2023-01-29T21:26:38.691Z,25.88
2023-01-29T21:29:07.435Z,25.75
2023-01-29T21:31:34.388Z,25.69
2023-01-29T21:34:01.345Z,25.56
2023-01-29T21:36:28.257Z,25.50
2023-01-29T21:38:55.159Z,25.38
2023-01-29T21:41:22.079Z,25.31
2023-01-29T21:43:48.982Z,25.19
2023-01-29T21:46:15.959Z,25.13
2023-01-29T21:48:42.917Z,25.06
2023-01-29T21:51:09.864Z,24.94
2023-01-29T21:53:36.914Z,24.88
2023-01-29T21:56:03.848Z,24.81
2023-01-29T21:58:30.787Z,24.69
2023-01-29T22:01:18.223Z,24.63
2023-01-29T22:03:47.073Z,24.56
2023-01-29T22:06:14.960Z,24.44
2023-01-29T22:08:41.895Z,24.00
2023-01-29T22:11:09.022Z,23.75
2023-01-29T22:13:35.954Z,23.50
2023-01-29T22:16:02.889Z,23.38
2023-01-29T22:18:29.814Z,23.31
2023-01-29T22:20:56.759Z,23.25
2023-01-29T22:23:23.683Z,23.13
2023-01-29T22:25:53.684Z,23.06
2023-01-29T22:28:20.661Z,23.00
2023-01-29T22:30:50.997Z,22.94
2023-01-29T22:33:18.025Z,22.88
2023-01-29T22:35:44.957Z,22.88
2023-01-29T22:38:11.895Z,22.75
2023-01-29T22:40:38.865Z,22.75
2023-01-29T22:43:05.779Z,22.69
2023-01-29T22:45:32.701Z,22.63
2023-01-29T22:47:59.715Z,22.56
2023-01-29T22:50:26.674Z,22.50
2023-01-29T22:52:53.928Z,22.50
2023-01-29T22:55:21.083Z,22.44
2023-01-29T22:57:48.016Z,22.38
2023-01-29T23:00:15.014Z,22.31
2023-01-29T23:02:41.995Z,22.31
2023-01-29T23:05:08.921Z,22.25
2023-01-29T23:07:38.847Z,22.19
2023-01-29T23:10:06.983Z,22.13
2023-01-29T23:12:34.116Z,22.06
2023-01-29T23:15:01.037Z,21.94
2023-01-29T23:17:27.951Z,21.81
2023-01-29T23:19:54.889Z,21.69
2023-01-29T23:22:21.838Z,21.63
2023-01-29T23:24:48.837Z,21.56
2023-01-29T23:27:17.228Z,21.56
2023-01-29T23:29:48.299Z,21.50
2023-01-29T23:32:15.252Z,21.44
2023-01-29T23:34:42.199Z,21.38
2023-01-29T23:37:09.288Z,21.38
2023-01-29T23:39:36.253Z,21.31
2023-01-29T23:42:03.180Z,21.31
2023-01-29T23:44:30.159Z,21.25
2023-01-29T23:46:57.110Z,21.25
2023-01-29T23:49:24.114Z,21.19
2023-01-29T23:51:51.043Z,21.19
2023-01-29T23:54:17.956Z,21.13
2023-01-29T23:56:44.945Z,21.13
2023-01-29T23:59:11.914Z,21.06
